sensor_id;sensor_type;location;lat;lon;timestamp;pressure;altitude;pressure_sealevel;temperature;humidity
54900;BME280;40801;41.924;25.562;2023-02-16T00:01:50;100959.88;;;0.97;61.61
54900;BME280;40801;41.924;25.562;2023-02-16T00:04:19;100956.59;;;1.08;61.17
54900;BME280;40801;41.924;25.562;2023-02-16T00:06:46;100959.25;;;1.15;61.22
54900;BME280;40801;41.924;25.562;2023-02-16T00:09:12;100954.38;;;1.18;61.04
54900;BME280;40801;41.924;25.562;2023-02-16T00:11:37;100956.81;;;1.13;61.10
54900;BME280;40801;41.924;25.562;2023-02-16T00:14:22;100960.50;;;1.06;61.22
54900;BME280;40801;41.924;25.562;2023-02-16T00:16:54;100956.59;;;1.08;61.15
54900;BME280;40801;41.924;25.562;2023-02-16T00:19:32;100956.00;;;1.06;61.76
54900;BME280;40801;41.924;25.562;2023-02-16T00:21:59;100956.59;;;1.08;61.29
54900;BME280;40801;41.924;25.562;2023-02-16T00:24:27;100950.69;;;1.06;61.25
54900;BME280;40801;41.924;25.562;2023-02-16T00:26:53;100960.91;;;0.96;61.55
54900;BME280;40801;41.924;25.562;2023-02-16T00:29:19;100955.38;;;0.91;61.47
54900;BME280;40801;41.924;25.562;2023-02-16T00:31:46;100955.78;;;0.88;61.38
54900;BME280;40801;41.924;25.562;2023-02-16T00:34:30;100963.13;;;0.86;61.78
54900;BME280;40801;41.924;25.562;2023-02-16T00:36:58;100951.88;;;0.84;61.31
54900;BME280;40801;41.924;25.562;2023-02-16T00:39:24;100954.94;;;0.81;61.53
54900;BME280;40801;41.924;25.562;2023-02-16T00:41:55;100946.78;;;0.76;62.13
54900;BME280;40801;41.924;25.562;2023-02-16T00:46:49;100951.66;;;0.59;62.65
54900;BME280;40801;41.924;25.562;2023-02-16T00:49:19;100948.34;;;0.57;63.02
54900;BME280;40801;41.924;25.562;2023-02-16T00:51:46;100942.84;;;0.52;62.93
54900;BME280;40801;41.924;25.562;2023-02-16T00:54:11;100948.97;;;0.52;62.72
54900;BME280;40801;41.924;25.562;2023-02-16T00:56:37;100940.19;;;0.52;62.49
54900;BME280;40801;41.924;25.562;2023-02-16T00:59:05;100938.53;;;0.51;62.37
54900;BME280;40801;41.924;25.562;2023-02-16T01:01:33;100942.22;;;0.56;62.37
54900;BME280;40801;41.924;25.562;2023-02-16T01:04:01;100942.63;;;0.53;62.53
54900;BME280;40801;41.924;25.562;2023-02-16T01:06:27;100939.41;;;0.65;61.58
54900;BME280;40801;41.924;25.562;2023-02-16T01:09:17;100944.09;;;0.63;61.90
54900;BME280;40801;41.924;25.562;2023-02-16T01:12:04;100939.56;;;0.56;62.43
54900;BME280;40801;41.924;25.562;2023-02-16T01:14:31;100945.50;;;0.52;62.36
54900;BME280;40801;41.924;25.562;2023-02-16T01:16:57;100939.97;;;0.47;62.42
54900;BME280;40801;41.924;25.562;2023-02-16T01:19:23;100936.09;;;0.43;62.91
54900;BME280;40801;41.924;25.562;2023-02-16T01:21:49;100927.09;;;0.37;62.61
54900;BME280;40801;41.924;25.562;2023-02-16T01:24:14;100926.28;;;0.37;62.77
54900;BME280;40801;41.924;25.562;2023-02-16T01:26:43;100926.69;;;0.40;62.79
54900;BME280;40801;41.924;25.562;2023-02-16T01:29:16;100924.44;;;0.44;62.46
54900;BME280;40801;41.924;25.562;2023-02-16T01:31:43;100926.06;;;0.38;62.48
54900;BME280;40801;41.924;25.562;2023-02-16T01:34:09;100930.69;;;0.23;62.90
54900;BME280;40801;41.924;25.562;2023-02-16T01:36:53;100929.28;;;0.20;64.02
54900;BME280;40801;41.924;25.562;2023-02-16T01:39:19;100933.56;;;0.28;62.36
54900;BME280;40801;41.924;25.562;2023-02-16T01:44:35;100932.13;;;0.19;62.89
54900;BME280;40801;41.924;25.562;2023-02-16T01:47:18;100932.91;;;0.13;63.64
54900;BME280;40801;41.924;25.562;2023-02-16T01:49:48;100938.84;;;0.15;63.18
54900;BME280;40801;41.924;25.562;2023-02-16T01:52:25;100935.38;;;0.14;64.10
54900;BME280;40801;41.924;25.562;2023-02-16T01:54:57;100936.41;;;0.20;63.05
54900;BME280;40801;41.924;25.562;2023-02-16T01:57:33;100937.00;;;0.15;63.45
54900;BME280;40801;41.924;25.562;2023-02-16T02:00:20;100931.25;;;0.05;64.06
54900;BME280;40801;41.924;25.562;2023-02-16T02:02:51;100928.00;;;0.03;63.55
54900;BME280;40801;41.924;25.562;2023-02-16T02:05:24;100939.22;;;0.05;63.40
54900;BME280;40801;41.924;25.562;2023-02-16T02:15:51;100930.97;;;-0.13;65.74
54900;BME280;40801;41.924;25.562;2023-02-16T02:18:16;100932.63;;;-0.06;63.79
54900;BME280;40801;41.924;25.562;2023-02-16T02:37:55;100931.59;;;-0.05;64.40
54900;BME280;40801;41.924;25.562;2023-02-16T02:45:58;100939.72;;;-0.19;64.25
54900;BME280;40801;41.924;25.562;2023-02-16T02:48:30;100928.13;;;-0.12;63.70
54900;BME280;40801;41.924;25.562;2023-02-16T02:51:18;100931.38;;;-0.10;63.75
54900;BME280;40801;41.924;25.562;2023-02-16T02:59:39;100927.66;;;-0.22;63.85
54900;BME280;40801;41.924;25.562;2023-02-16T03:02:27;100936.66;;;-0.16;63.68
54900;BME280;40801;41.924;25.562;2023-02-16T03:04:55;100943.41;;;-0.14;63.94
54900;BME280;40801;41.924;25.562;2023-02-16T03:07:22;100942.81;;;-0.09;63.50
54900;BME280;40801;41.924;25.562;2023-02-16T03:10:11;100943.00;;;-0.11;63.19
54900;BME280;40801;41.924;25.562;2023-02-16T03:12:56;100938.28;;;-0.22;63.39
54900;BME280;40801;41.924;25.562;2023-02-16T03:15:23;100940.25;;;-0.31;63.75
54900;BME280;40801;41.924;25.562;2023-02-16T03:17:51;100939.63;;;-0.33;63.82
54900;BME280;40801;41.924;25.562;2023-02-16T03:20:38;100931.00;;;-0.41;63.80
54900;BME280;40801;41.924;25.562;2023-02-16T03:23:23;100931.41;;;-0.44;63.70
54900;BME280;40801;41.924;25.562;2023-02-16T03:26:07;100938.94;;;-0.48;63.79
54900;BME280;40801;41.924;25.562;2023-02-16T03:28:51;100928.28;;;-0.54;63.56
54900;BME280;40801;41.924;25.562;2023-02-16T03:31:36;100933.78;;;-0.56;64.14
54900;BME280;40801;41.924;25.562;2023-02-16T03:34:05;100924.34;;;-0.65;64.36
54900;BME280;40801;41.924;25.562;2023-02-16T03:36:36;100920.47;;;-0.63;64.57
54900;BME280;40801;41.924;25.562;2023-02-16T03:39:03;100932.50;;;-0.60;64.48
54900;BME280;40801;41.924;25.562;2023-02-16T03:41:37;100929.31;;;-0.55;64.35
54900;BME280;40801;41.924;25.562;2023-02-16T03:44:03;100933.13;;;-0.58;64.61
54900;BME280;40801;41.924;25.562;2023-02-16T03:46:29;100928.03;;;-0.59;64.33
54900;BME280;40801;41.924;25.562;2023-02-16T03:48:55;100928.19;;;-0.68;64.42
54900;BME280;40801;41.924;25.562;2023-02-16T03:51:20;100929.53;;;-0.78;64.82
54900;BME280;40801;41.924;25.562;2023-02-16T03:53:45;100924.22;;;-0.85;65.67
54900;BME280;40801;41.924;25.562;2023-02-16T03:56:11;100924.44;;;-0.80;64.92
54900;BME280;40801;41.924;25.562;2023-02-16T03:58:36;100912.22;;;-0.81;65.08
54900;BME280;40801;41.924;25.562;2023-02-16T04:01:02;100929.19;;;-0.69;64.81
54900;BME280;40801;41.924;25.562;2023-02-16T04:03:27;100930.44;;;-0.65;64.86
54900;BME280;40801;41.924;25.562;2023-02-16T04:05:53;100930.41;;;-0.71;65.13
54900;BME280;40801;41.924;25.562;2023-02-16T04:08:18;100930.22;;;-0.70;65.07
54900;BME280;40801;41.924;25.562;2023-02-16T04:10:43;100938.94;;;-0.76;65.36
54900;BME280;40801;41.924;25.562;2023-02-16T04:13:09;100937.72;;;-0.73;64.85
54900;BME280;40801;41.924;25.562;2023-02-16T04:15:34;100937.50;;;-0.78;64.77
54900;BME280;40801;41.924;25.562;2023-02-16T04:18:00;100943.16;;;-0.81;65.00
54900;BME280;40801;41.924;25.562;2023-02-16T04:20:31;100941.72;;;-0.84;65.06
54900;BME280;40801;41.924;25.562;2023-02-16T04:22:56;100940.09;;;-0.85;64.87
54900;BME280;40801;41.924;25.562;2023-02-16T04:25:23;100944.41;;;-0.77;64.21
54900;BME280;40801;41.924;25.562;2023-02-16T04:27:49;100939.28;;;-0.85;64.59
54900;BME280;40801;41.924;25.562;2023-02-16T04:30:20;100937.63;;;-0.86;64.69
54900;BME280;40801;41.924;25.562;2023-02-16T04:32:46;100934.78;;;-0.85;64.52
54900;BME280;40801;41.924;25.562;2023-02-16T04:35:12;100939.59;;;-0.95;65.15
54900;BME280;40801;41.924;25.562;2023-02-16T04:37:37;100944.06;;;-0.96;65.03
54900;BME280;40801;41.924;25.562;2023-02-16T04:40:04;100949.75;;;-0.99;65.08
54900;BME280;40801;41.924;25.562;2023-02-16T04:42:30;100948.50;;;-1.03;64.93
54900;BME280;40801;41.924;25.562;2023-02-16T04:44:55;100952.56;;;-1.00;64.71
54900;BME280;40801;41.924;25.562;2023-02-16T04:47:21;100951.50;;;-1.06;65.10
54900;BME280;40801;41.924;25.562;2023-02-16T04:49:50;100956.19;;;-1.08;65.31
54900;BME280;40801;41.924;25.562;2023-02-16T04:52:15;100951.81;;;-0.94;63.71
54900;BME280;40801;41.924;25.562;2023-02-16T04:54:41;100963.03;;;-0.92;64.41
54900;BME280;40801;41.924;25.562;2023-02-16T04:57:07;100964.44;;;-0.96;64.64
54900;BME280;40801;41.924;25.562;2023-02-16T04:59:33;100968.91;;;-0.97;64.87
54900;BME280;40801;41.924;25.562;2023-02-16T05:01:58;100969.72;;;-0.96;64.48
54900;BME280;40801;41.924;25.562;2023-02-16T05:04:24;100977.47;;;-0.95;64.61
54900;BME280;40801;41.924;25.562;2023-02-16T05:06:49;100974.88;;;-0.88;63.97
54900;BME280;40801;41.924;25.562;2023-02-16T05:09:15;100974.94;;;-0.81;63.77
54900;BME280;40801;41.924;25.562;2023-02-16T05:11:40;100978.03;;;-0.78;63.65
54900;BME280;40801;41.924;25.562;2023-02-16T05:14:30;100975.19;;;-0.76;64.21
54900;BME280;40801;41.924;25.562;2023-02-16T05:17:15;100984.38;;;-0.72;63.88
54900;BME280;40801;41.924;25.562;2023-02-16T05:19:43;100983.19;;;-0.70;64.01
54900;BME280;40801;41.924;25.562;2023-02-16T05:22:10;100980.16;;;-0.67;63.39
54900;BME280;40801;41.924;25.562;2023-02-16T05:24:36;100988.50;;;-0.70;63.87
54900;BME280;40801;41.924;25.562;2023-02-16T05:27:03;100986.59;;;-0.76;64.29
54900;BME280;40801;41.924;25.562;2023-02-16T05:29:29;100987.81;;;-0.78;64.63
54900;BME280;40801;41.924;25.562;2023-02-16T05:31:55;100985.84;;;-0.70;64.11
54900;BME280;40801;41.924;25.562;2023-02-16T05:34:20;101000.72;;;-0.69;64.20
54900;BME280;40801;41.924;25.562;2023-02-16T05:36:46;100998.88;;;-0.68;64.49
54900;BME280;40801;41.924;25.562;2023-02-16T05:39:11;100994.25;;;-0.59;63.91
54900;BME280;40801;41.924;25.562;2023-02-16T05:41:37;100988.72;;;-0.65;64.47
54900;BME280;40801;41.924;25.562;2023-02-16T05:44:03;100999.75;;;-0.61;64.27
54900;BME280;40801;41.924;25.562;2023-02-16T05:46:32;100998.13;;;-0.62;64.59
54900;BME280;40801;41.924;25.562;2023-02-16T05:48:59;100993.72;;;-0.55;64.18
54900;BME280;40801;41.924;25.562;2023-02-16T05:51:24;101003.50;;;-0.55;64.05
54900;BME280;40801;41.924;25.562;2023-02-16T05:53:50;101002.28;;;-0.53;64.35
54900;BME280;40801;41.924;25.562;2023-02-16T05:56:17;101003.53;;;-0.49;64.30
54900;BME280;40801;41.924;25.562;2023-02-16T05:58:43;101002.56;;;-0.41;64.07
54900;BME280;40801;41.924;25.562;2023-02-16T06:01:08;101005.66;;;-0.38;64.34
54900;BME280;40801;41.924;25.562;2023-02-16T06:03:34;101003.03;;;-0.31;64.37
54900;BME280;40801;41.924;25.562;2023-02-16T06:06:01;101002.47;;;-0.26;64.13
54900;BME280;40801;41.924;25.562;2023-02-16T06:08:29;101006.97;;;-0.27;63.99
54900;BME280;40801;41.924;25.562;2023-02-16T06:10:54;101012.31;;;-0.20;64.28
54900;BME280;40801;41.924;25.562;2023-02-16T06:13:21;101015.81;;;-0.13;64.19
54900;BME280;40801;41.924;25.562;2023-02-16T06:15:50;101020.63;;;0.05;63.53
54900;BME280;40801;41.924;25.562;2023-02-16T06:18:16;101021.03;;;0.08;63.77
54900;BME280;40801;41.924;25.562;2023-02-16T06:20:41;101025.78;;;0.19;63.55
54900;BME280;40801;41.924;25.562;2023-02-16T06:23:10;101029.13;;;0.35;63.41
54900;BME280;40801;41.924;25.562;2023-02-16T06:25:36;101036.13;;;0.49;63.19
54900;BME280;40801;41.924;25.562;2023-02-16T06:28:02;101027.38;;;0.55;62.65
54900;BME280;40801;41.924;25.562;2023-02-16T06:30:27;101022.75;;;0.70;62.45
54900;BME280;40801;41.924;25.562;2023-02-16T06:32:53;101029.34;;;0.87;61.81
54900;BME280;40801;41.924;25.562;2023-02-16T06:35:18;101033.66;;;1.02;61.72
54900;BME280;40801;41.924;25.562;2023-02-16T06:37:44;101027.75;;;1.19;61.35
54900;BME280;40801;41.924;25.562;2023-02-16T06:40:10;101025.91;;;1.33;61.45
54900;BME280;40801;41.924;25.562;2023-02-16T06:42:39;101016.91;;;1.41;61.52
54900;BME280;40801;41.924;25.562;2023-02-16T06:45:04;101033.09;;;1.59;60.76
54900;BME280;40801;41.924;25.562;2023-02-16T06:47:30;101029.59;;;1.72;60.44
54900;BME280;40801;41.924;25.562;2023-02-16T06:49:55;101032.25;;;1.85;60.63
54900;BME280;40801;41.924;25.562;2023-02-16T06:52:20;101038.56;;;2.04;60.55
54900;BME280;40801;41.924;25.562;2023-02-16T06:54:46;101041.66;;;2.59;61.15
54900;BME280;40801;41.924;25.562;2023-02-16T06:57:11;101026.97;;;3.51;59.87
54900;BME280;40801;41.924;25.562;2023-02-16T06:59:37;101031.47;;;4.37;58.65
54900;BME280;40801;41.924;25.562;2023-02-16T07:02:02;101024.94;;;5.11;57.42
54900;BME280;40801;41.924;25.562;2023-02-16T07:04:28;101028.22;;;5.89;55.69
54900;BME280;40801;41.924;25.562;2023-02-16T07:06:53;101022.53;;;6.49;53.84
54900;BME280;40801;41.924;25.562;2023-02-16T07:09:19;101018.09;;;6.95;52.66
54900;BME280;40801;41.924;25.562;2023-02-16T07:11:44;101017.88;;;7.47;51.87
54900;BME280;40801;41.924;25.562;2023-02-16T07:14:09;101022.06;;;7.55;50.71
54900;BME280;40801;41.924;25.562;2023-02-16T07:16:35;101014.16;;;7.65;49.78
54900;BME280;40801;41.924;25.562;2023-02-16T07:19:00;101023.94;;;8.31;48.99
54900;BME280;40801;41.924;25.562;2023-02-16T07:21:25;101015.81;;;8.92;47.65
54900;BME280;40801;41.924;25.562;2023-02-16T07:23:51;101016.81;;;9.40;46.44
54900;BME280;40801;41.924;25.562;2023-02-16T07:26:16;101013.94;;;9.88;45.68
54900;BME280;40801;41.924;25.562;2023-02-16T07:28:42;101012.03;;;10.31;44.95
54900;BME280;40801;41.924;25.562;2023-02-16T07:31:13;101002.94;;;10.47;42.32
54900;BME280;40801;41.924;25.562;2023-02-16T07:33:39;101007.91;;;10.86;43.09
54900;BME280;40801;41.924;25.562;2023-02-16T07:36:06;101002.19;;;10.67;42.54
54900;BME280;40801;41.924;25.562;2023-02-16T07:38:32;101003.09;;;11.13;42.35
54900;BME280;40801;41.924;25.562;2023-02-16T07:40:57;100996.63;;;11.20;42.33
54900;BME280;40801;41.924;25.562;2023-02-16T07:43:24;100996.88;;;11.74;41.48
54900;BME280;40801;41.924;25.562;2023-02-16T07:45:50;100993.63;;;11.97;41.24
54900;BME280;40801;41.924;25.562;2023-02-16T07:48:15;100990.78;;;12.38;40.89
54900;BME280;40801;41.924;25.562;2023-02-16T07:50:40;100984.13;;;12.75;40.19
54900;BME280;40801;41.924;25.562;2023-02-16T07:53:06;100991.16;;;13.15;40.03
54900;BME280;40801;41.924;25.562;2023-02-16T07:55:32;100984.59;;;13.26;39.35
54900;BME280;40801;41.924;25.562;2023-02-16T07:57:58;100975.06;;;13.62;38.86
54900;BME280;40801;41.924;25.562;2023-02-16T08:00:24;100983.66;;;13.99;38.71
54900;BME280;40801;41.924;25.562;2023-02-16T08:02:50;100987.78;;;14.15;38.23
54900;BME280;40801;41.924;25.562;2023-02-16T08:05:16;100991.81;;;14.41;37.99
54900;BME280;40801;41.924;25.562;2023-02-16T08:07:41;100987.56;;;14.59;37.51
54900;BME280;40801;41.924;25.562;2023-02-16T08:10:07;100986.09;;;14.85;37.49
54900;BME280;40801;41.924;25.562;2023-02-16T08:12:33;100981.53;;;15.18;37.06
54900;BME280;40801;41.924;25.562;2023-02-16T08:14:58;100985.13;;;15.46;36.66
54900;BME280;40801;41.924;25.562;2023-02-16T08:17:23;100977.78;;;15.79;36.24
54900;BME280;40801;41.924;25.562;2023-02-16T08:19:49;100976.78;;;15.43;36.23
54900;BME280;40801;41.924;25.562;2023-02-16T08:22:16;100982.00;;;15.39;36.23
54900;BME280;40801;41.924;25.562;2023-02-16T08:24:42;100981.09;;;15.63;36.02
54900;BME280;40801;41.924;25.562;2023-02-16T08:27:07;100988.47;;;15.76;35.59
54900;BME280;40801;41.924;25.562;2023-02-16T08:29:33;100980.31;;;16.31;35.10
54900;BME280;40801;41.924;25.562;2023-02-16T08:31:58;100977.97;;;16.79;34.53
54900;BME280;40801;41.924;25.562;2023-02-16T08:34:24;100970.50;;;16.71;34.26
54900;BME280;40801;41.924;25.562;2023-02-16T08:36:52;100968.63;;;17.16;33.73
54900;BME280;40801;41.924;25.562;2023-02-16T08:39:22;100976.69;;;17.21;33.01
54900;BME280;40801;41.924;25.562;2023-02-16T08:41:49;100975.44;;;17.50;33.34
54900;BME280;40801;41.924;25.562;2023-02-16T08:44:15;100975.06;;;17.96;32.86
54900;BME280;40801;41.924;25.562;2023-02-16T08:46:43;100969.22;;;18.29;31.63
54900;BME280;40801;41.924;25.562;2023-02-16T08:49:09;100977.75;;;18.27;31.45
54900;BME280;40801;41.924;25.562;2023-02-16T08:51:39;100971.75;;;18.91;30.20
54900;BME280;40801;41.924;25.562;2023-02-16T08:54:05;100970.13;;;19.24;30.09
54900;BME280;40801;41.924;25.562;2023-02-16T08:56:34;100977.06;;;18.87;30.45
54900;BME280;40801;41.924;25.562;2023-02-16T08:59:00;100966.88;;;19.31;30.29
54900;BME280;40801;41.924;25.562;2023-02-16T09:01:26;100976.53;;;19.54;30.08
54900;BME280;40801;41.924;25.562;2023-02-16T09:03:52;100978.56;;;19.66;29.77
54900;BME280;40801;41.924;25.562;2023-02-16T09:06:19;100977.63;;;20.38;28.94
54900;BME280;40801;41.924;25.562;2023-02-16T09:08:53;100982.22;;;19.87;28.29
54900;BME280;40801;41.924;25.562;2023-02-16T09:11:20;100983.53;;;20.19;29.01
54900;BME280;40801;41.924;25.562;2023-02-16T09:13:46;100983.19;;;20.21;29.11
54900;BME280;40801;41.924;25.562;2023-02-16T09:16:15;100977.53;;;19.96;28.78
54900;BME280;40801;41.924;25.562;2023-02-16T09:18:41;100978.50;;;20.59;27.84
54900;BME280;40801;41.924;25.562;2023-02-16T09:21:13;100972.88;;;21.18;26.94
54900;BME280;40801;41.924;25.562;2023-02-16T09:23:42;100973.53;;;20.73;27.56
54900;BME280;40801;41.924;25.562;2023-02-16T09:26:09;100972.06;;;20.97;26.81
54900;BME280;40801;41.924;25.562;2023-02-16T09:28:36;100967.53;;;21.67;25.81
54900;BME280;40801;41.924;25.562;2023-02-16T09:31:19;100967.56;;;21.79;25.71
54900;BME280;40801;41.924;25.562;2023-02-16T09:33:53;100963.09;;;21.75;25.77
54900;BME280;40801;41.924;25.562;2023-02-16T09:36:18;100960.69;;;22.46;23.95
54900;BME280;40801;41.924;25.562;2023-02-16T09:38:44;100953.75;;;22.12;24.94
54900;BME280;40801;41.924;25.562;2023-02-16T09:43:44;100949.81;;;22.50;24.40
54900;BME280;40801;41.924;25.562;2023-02-16T09:46:15;100937.59;;;22.75;24.01
54900;BME280;40801;41.924;25.562;2023-02-16T09:48:45;100948.63;;;22.88;24.45
54900;BME280;40801;41.924;25.562;2023-02-16T09:51:31;100939.59;;;23.03;23.25
54900;BME280;40801;41.924;25.562;2023-02-16T09:54:09;100930.00;;;22.97;24.01
54900;BME280;40801;41.924;25.562;2023-02-16T09:56:43;100933.44;;;23.22;24.26
54900;BME280;40801;41.924;25.562;2023-02-16T09:59:21;100934.28;;;23.10;23.69
54900;BME280;40801;41.924;25.562;2023-02-16T10:09:37;100908.69;;;23.53;24.45
54900;BME280;40801;41.924;25.562;2023-02-16T10:12:10;100904.69;;;23.98;23.29
54900;BME280;40801;41.924;25.562;2023-02-16T10:14:45;100909.88;;;23.84;23.37
54900;BME280;40801;41.924;25.562;2023-02-16T10:17:40;100904.03;;;24.55;22.55
54900;BME280;40801;41.924;25.562;2023-02-16T10:20:30;100898.94;;;25.15;22.26
54900;BME280;40801;41.924;25.562;2023-02-16T10:25:39;100891.63;;;24.84;22.53
54900;BME280;40801;41.924;25.562;2023-02-16T10:28:21;100879.94;;;24.91;22.31
54900;BME280;40801;41.924;25.562;2023-02-16T10:31:02;100887.78;;;24.89;22.29
54900;BME280;40801;41.924;25.562;2023-02-16T10:36:23;100872.97;;;24.78;22.00
54900;BME280;40801;41.924;25.562;2023-02-16T10:39:02;100870.84;;;25.10;22.25
54900;BME280;40801;41.924;25.562;2023-02-16T10:41:43;100869.31;;;25.81;21.72
54900;BME280;40801;41.924;25.562;2023-02-16T10:44:30;100865.34;;;25.32;21.61
54900;BME280;40801;41.924;25.562;2023-02-16T10:47:02;100862.56;;;25.78;22.10
54900;BME280;40801;41.924;25.562;2023-02-16T10:49:30;100865.38;;;26.08;21.71
54900;BME280;40801;41.924;25.562;2023-02-16T10:51:58;100850.09;;;26.18;21.52
54900;BME280;40801;41.924;25.562;2023-02-16T10:54:27;100844.84;;;26.09;21.81
54900;BME280;40801;41.924;25.562;2023-02-16T10:57:01;100850.13;;;26.21;20.82
54900;BME280;40801;41.924;25.562;2023-02-16T10:59:41;100838.06;;;26.33;21.36
54900;BME280;40801;41.924;25.562;2023-02-16T11:02:22;100837.50;;;26.88;19.90
54900;BME280;40801;41.924;25.562;2023-02-16T11:04:50;100828.72;;;26.78;21.04
54900;BME280;40801;41.924;25.562;2023-02-16T11:07:24;100825.94;;;26.78;21.05
54900;BME280;40801;41.924;25.562;2023-02-16T11:09:53;100827.22;;;26.88;20.55
54900;BME280;40801;41.924;25.562;2023-02-16T11:12:34;100809.72;;;26.77;20.52
54900;BME280;40801;41.924;25.562;2023-02-16T11:15:19;100809.50;;;27.33;20.22
54900;BME280;40801;41.924;25.562;2023-02-16T11:17:51;100803.38;;;27.13;20.26
54900;BME280;40801;41.924;25.562;2023-02-16T11:28:29;100792.44;;;27.83;19.40
54900;BME280;40801;41.924;25.562;2023-02-16T11:31:00;100782.41;;;27.64;19.14
54900;BME280;40801;41.924;25.562;2023-02-16T11:33:27;100778.06;;;27.63;19.75
54900;BME280;40801;41.924;25.562;2023-02-16T11:35:53;100789.34;;;27.95;19.21
54900;BME280;40801;41.924;25.562;2023-02-16T11:38:31;100789.41;;;28.09;18.65
54900;BME280;40801;41.924;25.562;2023-02-16T11:40:58;100783.28;;;27.75;19.58
54900;BME280;40801;41.924;25.562;2023-02-16T11:43:26;100777.47;;;28.01;19.12
54900;BME280;40801;41.924;25.562;2023-02-16T11:46:02;100773.44;;;29.14;17.14
54900;BME280;40801;41.924;25.562;2023-02-16T11:48:31;100768.28;;;28.91;17.00
54900;BME280;40801;41.924;25.562;2023-02-16T11:51:01;100769.94;;;28.02;17.24
54900;BME280;40801;41.924;25.562;2023-02-16T11:53:32;100757.91;;;28.71;16.36
54900;BME280;40801;41.924;25.562;2023-02-16T11:56:21;100755.19;;;29.03;16.05
54900;BME280;40801;41.924;25.562;2023-02-16T11:59:19;100752.69;;;28.37;16.68
54900;BME280;40801;41.924;25.562;2023-02-16T12:12:51;100729.56;;;28.08;17.93
54900;BME280;40801;41.924;25.562;2023-02-16T12:26:59;100705.47;;;28.33;17.63
54900;BME280;40801;41.924;25.562;2023-02-16T12:35:20;100694.47;;;28.97;17.39
54900;BME280;40801;41.924;25.562;2023-02-16T12:38:02;100692.47;;;28.80;17.15
54900;BME280;40801;41.924;25.562;2023-02-16T12:43:47;100687.69;;;28.45;16.90
54900;BME280;40801;41.924;25.562;2023-02-16T12:46:32;100691.59;;;28.30;16.91
54900;BME280;40801;41.924;25.562;2023-02-16T12:49:22;100688.06;;;28.36;17.51
54900;BME280;40801;41.924;25.562;2023-02-16T12:51:59;100686.41;;;28.14;17.26
54900;BME280;40801;41.924;25.562;2023-02-16T12:54:43;100666.25;;;28.31;16.87
54900;BME280;40801;41.924;25.562;2023-02-16T12:57:15;100665.09;;;28.72;16.87
54900;BME280;40801;41.924;25.562;2023-02-16T13:07:41;100659.97;;;28.63;16.67
54900;BME280;40801;41.924;25.562;2023-02-16T13:10:20;100659.91;;;28.27;17.01
54900;BME280;40801;41.924;25.562;2023-02-16T13:12:52;100657.81;;;28.03;17.63
54900;BME280;40801;41.924;25.562;2023-02-16T13:15:29;100652.81;;;29.05;16.13
54900;BME280;40801;41.924;25.562;2023-02-16T13:18:01;100646.84;;;28.88;16.71
54900;BME280;40801;41.924;25.562;2023-02-16T13:20:27;100644.06;;;29.20;16.64
54900;BME280;40801;41.924;25.562;2023-02-16T13:25:32;100632.13;;;29.20;16.18
54900;BME280;40801;41.924;25.562;2023-02-16T13:43:42;100626.16;;;28.07;17.38
54900;BME280;40801;41.924;25.562;2023-02-16T13:46:19;100625.44;;;28.46;16.57
54900;BME280;40801;41.924;25.562;2023-02-16T13:48:49;100634.16;;;28.34;17.01
54900;BME280;40801;41.924;25.562;2023-02-16T13:51:20;100628.47;;;27.84;17.07
54900;BME280;40801;41.924;25.562;2023-02-16T13:54:02;100627.06;;;27.42;17.30
54900;BME280;40801;41.924;25.562;2023-02-16T13:58:54;100635.19;;;27.80;17.52
54900;BME280;40801;41.924;25.562;2023-02-16T14:03:57;100620.72;;;27.35;17.84
54900;BME280;40801;41.924;25.562;2023-02-16T14:14:33;100618.59;;;26.59;17.79
54900;BME280;40801;41.924;25.562;2023-02-16T14:17:31;100609.75;;;26.39;17.96
54900;BME280;40801;41.924;25.562;2023-02-16T14:22:48;100610.16;;;26.89;17.24
54900;BME280;40801;41.924;25.562;2023-02-16T14:27:50;100603.28;;;25.24;18.70
54900;BME280;40801;41.924;25.562;2023-02-16T14:32:48;100609.59;;;22.94;20.29
54900;BME280;40801;41.924;25.562;2023-02-16T14:35:23;100607.09;;;21.82;22.24
54900;BME280;40801;41.924;25.562;2023-02-16T14:40:39;100604.53;;;20.36;23.79
54900;BME280;40801;41.924;25.562;2023-02-16T14:43:19;100606.09;;;19.59;24.45
54900;BME280;40801;41.924;25.562;2023-02-16T14:56:43;100608.03;;;17.85;27.41
54900;BME280;40801;41.924;25.562;2023-02-16T14:59:26;100611.06;;;17.57;28.62
54900;BME280;40801;41.924;25.562;2023-02-16T15:01:53;100604.19;;;17.43;27.46
54900;BME280;40801;41.924;25.562;2023-02-16T15:04:29;100609.13;;;17.15;29.39
54900;BME280;40801;41.924;25.562;2023-02-16T15:06:56;100602.66;;;16.93;28.28
54900;BME280;40801;41.924;25.562;2023-02-16T15:09:28;100599.22;;;16.70;29.23
54900;BME280;40801;41.924;25.562;2023-02-16T15:12:09;100599.94;;;16.54;29.61
54900;BME280;40801;41.924;25.562;2023-02-16T15:14:53;100603.38;;;16.37;29.39
54900;BME280;40801;41.924;25.562;2023-02-16T15:20:07;100599.31;;;15.95;31.74
54900;BME280;40801;41.924;25.562;2023-02-16T15:22:35;100603.03;;;15.76;30.32
54900;BME280;40801;41.924;25.562;2023-02-16T15:25:20;100602.97;;;15.54;31.74
54900;BME280;40801;41.924;25.562;2023-02-16T15:27:56;100598.72;;;15.39;32.25
54900;BME280;40801;41.924;25.562;2023-02-16T15:30:30;100600.66;;;15.25;32.25
54900;BME280;40801;41.924;25.562;2023-02-16T15:32:59;100603.03;;;15.04;32.68
54900;BME280;40801;41.924;25.562;2023-02-16T15:35:43;100605.34;;;14.83;33.91
54900;BME280;40801;41.924;25.562;2023-02-16T15:40:39;100601.16;;;14.50;33.22
54900;BME280;40801;41.924;25.562;2023-02-16T15:43:23;100609.03;;;14.33;34.86